createdAt,value
2019-02-25T00:00:34.668Z,73.42
2019-02-25T00:05:38.129Z,74.97
2019-02-25T00:10:41.539Z,74.89
2019-02-25T00:15:44.953Z,74.72
2019-02-25T00:20:48.368Z,74.55
2019-02-25T00:25:51.783Z,74.44
2019-02-25T00:30:55.219Z,73.43
2019-02-25T00:35:58.643Z,73.38
2019-02-25T00:41:02.110Z,73.64
2019-02-25T00:46:05.507Z,74.11
2019-02-25T00:51:08.953Z,75.55
2019-02-25T00:56:12.365Z,76.10
2019-02-25T01:01:15.889Z,76.43
2019-02-25T01:06:19.302Z,76.98
2019-02-25T01:11:22.748Z,75.50
2019-02-25T01:16:26.162Z,76.32
2019-02-25T01:21:29.585Z,76.72
2019-02-25T01:26:32.995Z,74.96
2019-02-25T01:31:36.417Z,75.69
2019-02-25T01:36:39.989Z,77.30
2019-02-25T01:41:43.521Z,75.77
2019-02-25T01:46:46.910Z,77.90
2019-02-25T01:51:50.324Z,75.70
2019-02-25T01:56:53.806Z,77.59
2019-02-25T02:01:57.236Z,77.34
2019-02-25T02:07:00.676Z,75.87
2019-02-25T02:12:04.161Z,76.79
2019-02-25T02:17:07.587Z,77.02
2019-02-25T02:22:11.107Z,78.67
2019-02-25T02:27:14.615Z,76.18
2019-02-25T02:32:18.036Z,75.68
2019-02-25T02:37:21.486Z,76.81
2019-02-25T02:42:24.905Z,76.48
2019-02-25T02:47:52.009Z,76.49
2019-02-25T02:52:55.430Z,76.92
2019-02-25T02:57:58.885Z,77.51
2019-02-25T03:03:02.349Z,77.66
2019-02-25T03:08:05.755Z,79.90
2019-02-25T03:13:09.650Z,76.78
2019-02-25T03:18:13.101Z,79.65
2019-02-25T03:23:16.535Z,77.20
2019-02-25T03:28:20.486Z,77.33
2019-02-25T03:33:24.018Z,78.29
2019-02-25T03:38:27.430Z,80.60
2019-02-25T03:43:30.851Z,79.44
2019-02-25T03:48:34.271Z,77.91
2019-02-25T03:53:37.736Z,77.57
2019-02-25T03:58:41.142Z,77.58
2019-02-25T04:03:44.632Z,78.49
2019-02-25T04:08:48.047Z,81.11
2019-02-25T04:13:51.478Z,80.58
2019-02-25T04:18:54.981Z,80.18
2019-02-25T04:23:58.423Z,80.29
2019-02-25T04:29:01.907Z,79.89
2019-02-25T04:34:05.329Z,80.54
2019-02-25T04:39:08.752Z,79.84
2019-02-25T04:44:12.198Z,81.49
2019-02-25T04:49:15.636Z,81.22
2019-02-25T04:54:19.065Z,82.30
2019-02-25T04:59:22.498Z,82.48
2019-02-25T05:04:25.929Z,82.35
2019-02-25T05:09:29.376Z,83.52
2019-02-25T05:14:32.795Z,85.02
2019-02-25T05:19:36.211Z,83.37
2019-02-25T05:24:39.668Z,84.60
2019-02-25T05:29:43.127Z,83.73
2019-02-25T05:34:46.571Z,84.16
2019-02-25T05:39:50.013Z,84.55
2019-02-25T05:44:53.457Z,84.25
2019-02-25T05:49:56.962Z,86.08
2019-02-25T05:55:00.431Z,83.75
2019-02-25T06:00:05.330Z,80.96
2019-02-25T06:05:08.765Z,82.71
2019-02-25T06:10:13.630Z,85.26
2019-02-25T06:15:18.512Z,83.56
2019-02-25T06:20:22.016Z,85.06
2019-02-25T06:25:25.503Z,85.35
2019-02-25T06:30:28.949Z,83.42
2019-02-25T06:35:32.448Z,83.36
2019-02-25T06:40:35.894Z,82.77
2019-02-25T06:45:39.329Z,83.00
2019-02-25T06:50:42.760Z,83.62
2019-02-25T06:55:46.195Z,82.73
2019-02-25T07:00:49.628Z,83.45
2019-02-25T07:05:57.270Z,83.08
2019-02-25T07:11:14.097Z,83.19
2019-02-25T07:16:24.680Z,83.05
2019-02-25T07:21:29.749Z,82.07
2019-02-25T07:26:34.820Z,82.13
2019-02-25T07:31:56.133Z,81.59
2019-02-25T07:37:13.224Z,82.99
2019-02-25T07:53:16.313Z,81.57
2019-02-25T07:58:30.501Z,81.80
2019-02-25T08:03:44.237Z,82.31
2019-02-25T08:09:05.302Z,82.64
2019-02-25T08:14:28.381Z,83.45
2019-02-25T08:25:15.361Z,80.65
2019-02-25T08:30:23.376Z,74.75
2019-02-25T08:36:04.502Z,72.60
2019-02-25T08:41:11.777Z,74.58
2019-02-25T08:46:16.868Z,73.01
2019-02-25T08:51:20.318Z,71.54
2019-02-25T08:56:23.754Z,67.05
2019-02-25T09:01:27.178Z,65.02
2019-02-25T09:06:30.593Z,64.43
2019-02-25T09:11:34.024Z,63.63
2019-02-25T09:16:37.441Z,63.53
2019-02-25T09:21:40.897Z,60.32
2019-02-25T09:26:44.327Z,60.08
2019-02-25T09:31:47.770Z,60.29
2019-02-25T09:36:51.196Z,57.47
2019-02-25T09:41:54.660Z,56.10
2019-02-25T09:46:58.163Z,53.10
2019-02-25T09:52:01.606Z,52.65
2019-02-25T09:57:05.114Z,48.28
2019-02-25T10:02:08.563Z,49.13
2019-02-25T10:07:11.995Z,47.65
2019-02-25T10:12:15.461Z,45.29
2019-02-25T10:17:23.796Z,44.28
2019-02-25T10:22:24.025Z,45.00
2019-02-25T10:27:27.473Z,43.87
2019-02-25T10:32:30.912Z,44.00
2019-02-25T10:37:36.268Z,42.80
2019-02-25T10:42:39.526Z,39.85
2019-02-25T10:47:44.248Z,38.95
2019-02-25T10:52:49.510Z,37.07
2019-02-25T10:57:54.916Z,36.92
2019-02-25T11:02:58.398Z,37.41
2019-02-25T11:08:05.223Z,37.36
2019-02-25T11:13:08.702Z,36.81
2019-02-25T11:18:12.144Z,33.59
2019-02-25T11:23:17.646Z,34.27
2019-02-25T11:28:25.434Z,32.09
2019-02-25T11:33:27.903Z,32.14
2019-02-25T11:38:34.739Z,31.14
2019-02-25T11:43:36.293Z,30.67
2019-02-25T11:48:39.730Z,29.71
2019-02-25T11:53:43.146Z,29.60
2019-02-25T11:58:46.582Z,30.94
2019-02-25T12:03:50.146Z,31.05
2019-02-25T12:08:53.582Z,30.22
2019-02-25T12:13:57.016Z,31.49
2019-02-25T12:19:00.457Z,27.58
2019-02-25T12:24:03.882Z,27.58
2019-02-25T12:29:10.809Z,28.14
2019-02-25T12:34:12.543Z,28.54
2019-02-25T12:39:16.310Z,28.54
2019-02-25T12:44:19.763Z,27.11
2019-02-25T12:49:23.193Z,26.58
2019-02-25T12:54:26.665Z,26.58
2019-02-25T12:59:30.133Z,25.69
2019-02-25T13:04:33.584Z,26.00
2019-02-25T13:09:37.011Z,26.58
2019-02-25T13:14:40.471Z,27.31
2019-02-25T13:19:43.865Z,27.31
2019-02-25T13:24:47.303Z,28.16
2019-02-25T13:29:50.735Z,28.84
2019-02-25T13:34:54.153Z,28.46
2019-02-25T13:39:57.589Z,28.31
2019-02-25T13:45:01.022Z,29.54
2019-02-25T13:50:07.678Z,29.24
2019-02-25T13:55:19.242Z,30.22
2019-02-25T14:00:24.047Z,30.22
2019-02-25T14:05:27.568Z,31.37
2019-02-25T14:10:31.006Z,31.61
2019-02-25T14:15:34.529Z,31.61
2019-02-25T14:20:38.217Z,32.24
2019-02-25T14:25:41.802Z,33.27
2019-02-25T14:30:45.233Z,33.42
2019-02-25T14:35:50.281Z,32.57
2019-02-25T14:40:56.322Z,33.00
2019-02-25T14:46:01.444Z,33.23
2019-02-25T14:51:04.729Z,32.86
2019-02-25T14:56:08.262Z,33.26
2019-02-25T15:01:11.726Z,32.67
2019-02-25T15:06:15.174Z,33.08
2019-02-25T15:11:18.713Z,33.21
2019-02-25T15:16:22.248Z,34.16
2019-02-25T15:21:25.798Z,33.90
2019-02-25T15:26:30.266Z,34.62
2019-02-25T15:31:33.994Z,35.86
2019-02-25T15:36:37.595Z,36.22
2019-02-25T15:41:44.111Z,37.42
2019-02-25T15:46:46.343Z,37.39
2019-02-25T15:51:49.812Z,37.56
2019-02-25T15:56:53.282Z,38.03
2019-02-25T16:01:56.728Z,37.87
2019-02-25T16:07:03.848Z,38.09
2019-02-25T16:12:07.042Z,38.40
2019-02-25T16:17:10.967Z,39.38
2019-02-25T16:22:14.455Z,39.57
2019-02-25T16:27:19.389Z,40.31
2019-02-25T16:32:24.117Z,41.19
2019-02-25T16:37:29.144Z,40.72
2019-02-25T16:42:34.738Z,41.81
2019-02-25T16:47:39.038Z,42.91
2019-02-25T16:52:44.996Z,44.04
2019-02-25T16:57:48.323Z,44.64
2019-02-25T17:02:51.836Z,45.28
2019-02-25T17:07:56.260Z,46.05
2019-02-25T17:12:59.851Z,46.92
2019-02-25T17:18:03.286Z,47.73
2019-02-25T17:23:09.562Z,48.41
2019-02-25T17:28:14.777Z,49.54
2019-02-25T17:33:17.221Z,50.14
2019-02-25T17:38:22.607Z,50.77
2019-02-25T17:43:25.804Z,51.30
2019-02-25T17:48:29.256Z,52.71
2019-02-25T17:53:32.851Z,53.16
2019-02-25T17:58:38.087Z,53.99
2019-02-25T18:03:43.422Z,54.79
2019-02-25T18:08:46.865Z,55.50
2019-02-25T18:13:51.259Z,56.12
2019-02-25T18:18:56.828Z,56.85
2019-02-25T18:24:00.732Z,57.50
2019-02-25T18:29:05.557Z,58.06
2019-02-25T18:34:11.199Z,59.36
2019-02-25T18:39:15.393Z,59.12
2019-02-25T18:44:18.999Z,59.59
2019-02-25T18:49:22.640Z,60.27
2019-02-25T18:54:26.078Z,61.51
2019-02-25T18:59:30.333Z,62.43
2019-02-25T19:04:34.976Z,62.88
2019-02-25T19:09:40.842Z,63.46
2019-02-25T19:14:44.110Z,64.33
2019-02-25T19:19:51.096Z,65.43
2019-02-25T19:24:52.763Z,65.43
2019-02-25T19:29:58.598Z,65.68
2019-02-25T19:35:04.008Z,66.16
2019-02-25T19:40:14.417Z,66.47
2019-02-25T19:45:18.327Z,67.25
2019-02-25T19:50:22.972Z,67.74
2019-02-25T19:55:26.406Z,68.11
2019-02-25T20:00:33.044Z,68.78
2019-02-25T20:05:38.797Z,68.40
2019-02-25T20:10:40.436Z,68.91
2019-02-25T20:15:44.469Z,68.86
2019-02-25T20:20:49.214Z,68.77
2019-02-25T20:25:53.573Z,69.16
2019-02-25T20:30:57.923Z,69.42
2019-02-25T20:36:03.164Z,69.90
2019-02-25T20:41:06.607Z,69.84
2019-02-25T20:46:10.029Z,70.92
2019-02-25T20:51:13.461Z,71.91
2019-02-25T20:56:16.891Z,72.10
2019-02-25T21:01:20.964Z,73.32
2019-02-25T21:06:24.538Z,73.68
2019-02-25T21:11:27.962Z,74.02
2019-02-25T21:16:33.071Z,74.98
2019-02-25T21:21:37.287Z,74.73
2019-02-25T21:26:42.202Z,74.22
2019-02-25T21:31:47.565Z,74.52
2019-02-25T21:36:52.462Z,74.26
2019-02-25T21:41:56.069Z,74.66
2019-02-25T21:47:01.173Z,74.58
2019-02-25T21:52:06.265Z,75.35
2019-02-25T21:57:09.954Z,75.69
2019-02-25T22:02:13.362Z,75.67
2019-02-25T22:07:19.797Z,76.18
2019-02-25T22:12:22.015Z,76.75
2019-02-25T22:17:25.459Z,75.95
2019-02-25T22:22:31.096Z,76.57
2019-02-25T22:27:35.297Z,76.89
2019-02-25T22:32:40.864Z,77.72
2019-02-25T22:37:47.183Z,76.98
2019-02-25T22:42:52.094Z,77.84
2019-02-25T22:47:54.998Z,78.14
2019-02-25T22:53:00.990Z,77.64
2019-02-25T22:58:03.576Z,77.92
2019-02-25T23:03:11.036Z,78.64
2019-02-25T23:08:13.087Z,79.53
2019-02-25T23:13:17.784Z,80.53
2019-02-25T23:18:25.110Z,81.42
2019-02-25T23:23:28.700Z,82.37
2019-02-25T23:28:32.872Z,81.87
2019-02-25T23:33:38.169Z,80.97
2019-02-25T23:38:41.489Z,82.37
2019-02-25T23:43:46.657Z,82.09
2019-02-25T23:48:50.063Z,81.61
2019-02-25T23:53:55.415Z,81.82
2019-02-25T23:58:58.629Z,82.65
